createdAt,value
2016-04-02T00:00:31.110Z,0
2016-04-02T00:01:45.442Z,0
2016-04-02T00:02:30.929Z,0
2016-04-02T00:03:31.135Z,0
2016-04-02T00:04:31.107Z,0
2016-04-02T00:05:30.890Z,0
2016-04-02T00:06:30.893Z,0
2016-04-02T00:07:31.099Z,0
2016-04-02T00:08:30.898Z,0
2016-04-02T00:09:30.917Z,0
2016-04-02T00:10:30.887Z,0
2016-04-02T00:11:30.876Z,0
2016-04-02T00:12:30.862Z,0
2016-04-02T00:13:30.912Z,0
2016-04-02T00:14:30.915Z,0
2016-04-02T00:15:30.854Z,0
2016-04-02T00:16:33.842Z,0
2016-04-02T00:17:30.907Z,0
2016-04-02T00:18:30.394Z,0
2016-04-02T00:19:31.053Z,0
2016-04-02T00:20:30.414Z,0
2016-04-02T00:21:30.825Z,0
2016-04-02T00:22:30.842Z,0
2016-04-02T00:23:45.517Z,0
2016-04-02T00:24:31.004Z,0
2016-04-02T00:25:30.569Z,0
2016-04-02T00:26:30.822Z,0
2016-04-02T00:27:30.872Z,0
2016-04-02T00:28:30.828Z,0
2016-04-02T00:29:30.799Z,0
2016-04-02T00:30:31.019Z,0
2016-04-02T00:31:30.976Z,0
2016-04-02T00:32:31.244Z,0
2016-04-02T00:33:30.809Z,0
2016-04-02T00:34:30.999Z,0
2016-04-02T00:35:44.913Z,0
2016-04-02T00:36:30.760Z,0
2016-04-02T00:37:30.762Z,0
2016-04-02T00:38:45.046Z,0
2016-04-02T00:39:30.784Z,0
2016-04-02T00:40:30.801Z,0
2016-04-02T00:41:30.758Z,0
2016-04-02T00:42:30.995Z,0
2016-04-02T00:43:30.747Z,0
2016-04-02T00:44:31.141Z,0
2016-04-02T00:45:30.737Z,0
2016-04-02T00:46:31.162Z,0
2016-04-02T00:47:45.039Z,0
2016-04-02T00:48:30.730Z,0
2016-04-02T00:49:30.967Z,0
2016-04-02T00:50:30.219Z,0
2016-04-02T00:51:30.722Z,0
2016-04-02T00:52:30.897Z,0
2016-04-02T00:53:30.914Z,0
2016-04-02T00:54:30.683Z,0
2016-04-02T00:55:30.686Z,0
2016-04-02T00:56:30.907Z,0
2016-04-02T00:57:30.691Z,0
2016-04-02T00:58:44.771Z,0
2016-04-02T00:59:30.681Z,0
2016-04-02T01:00:30.668Z,0
2016-04-02T01:02:30.674Z,0
2016-04-02T01:03:30.691Z,0
2016-04-02T01:04:30.663Z,0
2016-04-02T01:05:30.916Z,0
2016-04-02T01:06:30.591Z,0
2016-04-02T01:07:30.671Z,0
2016-04-02T01:08:30.845Z,0
2016-04-02T01:09:31.271Z,0
2016-04-02T01:10:30.633Z,0
2016-04-02T01:11:30.760Z,0
2016-04-02T01:12:44.935Z,0
2016-04-02T01:13:30.609Z,0
2016-04-02T01:14:30.456Z,0
2016-04-02T01:15:30.458Z,0
2016-04-02T01:16:30.634Z,0
2016-04-02T01:17:30.808Z,0
2016-04-02T01:18:44.747Z,0
2016-04-02T01:19:30.609Z,0
2016-04-02T01:20:44.894Z,0
2016-04-02T01:21:30.834Z,0
2016-04-02T01:22:30.556Z,0
2016-04-02T01:23:30.606Z,0
2016-04-02T01:24:30.545Z,0
2016-04-02T01:25:30.563Z,0
2016-04-02T01:26:30.566Z,0
2016-04-02T01:27:30.772Z,0
2016-04-02T01:28:30.556Z,0
2016-04-02T01:29:30.575Z,0
2016-04-02T01:30:30.952Z,0
2016-04-02T01:31:44.658Z,0
2016-04-02T01:32:30.974Z,0
2016-04-02T01:33:30.554Z,0
2016-04-02T01:34:30.729Z,0
2016-04-02T01:35:30.513Z,0
2016-04-02T01:36:30.515Z,0
2016-04-02T01:37:44.612Z,0
2016-04-02T01:38:29.771Z,0
2016-04-02T01:39:30.913Z,0
2016-04-02T01:40:30.510Z,0
2016-04-02T01:41:44.810Z,0
2016-04-02T01:42:30.500Z,0
2016-04-02T01:43:30.456Z,0
2016-04-02T01:44:31.302Z,0
2016-04-02T01:45:31.117Z,0
2016-04-02T01:46:30.651Z,0
2016-04-02T01:47:30.467Z,0
2016-04-02T01:48:30.437Z,0
2016-04-02T01:49:30.675Z,0
2016-04-02T01:50:30.427Z,0
2016-04-02T01:51:30.149Z,0
2016-04-02T01:53:30.498Z,0
2016-04-02T01:54:29.938Z,0
2016-04-02T01:55:30.660Z,0
2016-04-02T01:56:30.609Z,0
2016-04-02T01:57:30.568Z,0
2016-04-02T01:58:30.809Z,0
2016-04-02T01:59:30.597Z,0
2016-04-02T02:00:30.573Z,0
2016-04-02T02:01:30.319Z,0
2016-04-02T02:02:30.989Z,0
2016-04-02T02:03:30.363Z,0
2016-04-02T02:04:30.298Z,0
2016-04-02T02:05:30.297Z,0
2016-04-02T02:06:30.500Z,0
2016-04-02T02:07:30.298Z,0
2016-04-02T02:08:30.293Z,0
2016-04-02T02:09:30.247Z,0
2016-04-02T02:10:30.311Z,0
2016-04-02T02:11:29.750Z,0
2016-04-02T02:12:30.238Z,0
2016-04-02T02:13:30.255Z,0
2016-04-02T02:14:30.203Z,0
2016-04-02T02:15:58.393Z,0
2016-04-02T02:16:30.662Z,0
2016-04-02T02:17:30.211Z,0
2016-04-02T02:18:30.213Z,0
2016-04-02T02:19:30.215Z,0
2016-04-02T02:20:30.404Z,0
2016-04-02T02:21:30.188Z,0
2016-04-02T02:22:30.409Z,0
2016-04-02T02:23:30.412Z,0
2016-04-02T02:24:30.400Z,0
2016-04-02T02:25:44.277Z,0
2016-04-02T02:26:44.498Z,0
2016-04-02T02:27:30.596Z,0
2016-04-02T02:28:30.145Z,0
2016-04-02T02:29:30.148Z,0
2016-04-02T02:30:30.134Z,0
2016-04-02T02:31:30.153Z,0
2016-04-02T02:32:44.265Z,0
2016-04-02T02:33:30.112Z,0
2016-04-02T02:34:30.443Z,0
2016-04-02T02:35:30.148Z,0
2016-04-02T02:36:29.854Z,0
2016-04-02T02:37:30.686Z,0
2016-04-02T02:38:30.125Z,0
2016-04-02T02:39:30.081Z,0
2016-04-02T02:40:30.302Z,0
2016-04-02T02:41:30.087Z,0
2016-04-02T02:42:30.324Z,0
2016-04-02T02:43:30.280Z,0
2016-04-02T02:44:30.111Z,0
2016-04-02T02:45:30.050Z,0
2016-04-02T02:46:29.803Z,0
2016-04-02T02:47:30.041Z,0
2016-04-02T02:48:44.121Z,0
2016-04-02T02:49:30.061Z,0
2016-04-02T02:50:30.032Z,0
2016-04-02T02:51:30.082Z,0
2016-04-02T02:52:30.007Z,0
2016-04-02T02:53:30.431Z,0
2016-04-02T02:54:30.215Z,0
2016-04-02T02:55:29.749Z,0
2016-04-02T02:56:30.205Z,0
2016-04-02T02:57:30.021Z,0
2016-04-02T02:58:30.429Z,0
2016-04-02T02:59:44.088Z,0
2016-04-02T03:00:30.184Z,0
2016-04-02T03:01:30.203Z,0
2016-04-02T03:02:30.190Z,0
2016-04-02T03:03:44.255Z,0
2016-04-02T03:04:29.962Z,0
2016-04-02T03:05:29.964Z,0
2016-04-02T03:06:29.482Z,0
2016-04-02T03:08:29.973Z,0
2016-04-02T03:09:44.256Z,0
2016-04-02T03:10:44.243Z,0
2016-04-02T03:11:29.948Z,0
2016-04-02T03:12:29.639Z,0
2016-04-02T03:13:44.220Z,0
2016-04-02T03:14:30.191Z,0
2016-04-02T03:15:29.928Z,0
2016-04-02T03:16:29.930Z,0
2016-04-02T03:17:29.902Z,0
2016-04-02T03:18:29.889Z,0
2016-04-02T03:19:30.080Z,0
2016-04-02T03:20:43.958Z,0
2016-04-02T03:21:29.866Z,0
2016-04-02T03:22:29.885Z,0
2016-04-02T03:23:29.855Z,0
2016-04-02T03:24:29.827Z,0
2016-04-02T03:25:30.080Z,0
2016-04-02T03:26:30.035Z,0
2016-04-02T03:27:29.851Z,0
2016-04-02T03:28:30.041Z,0
2016-04-02T03:29:29.857Z,0
2016-04-02T03:30:29.829Z,0
2016-04-02T03:31:30.252Z,0
2016-04-02T03:32:29.802Z,0
2016-04-02T03:33:30.039Z,0
2016-04-02T03:34:29.807Z,0
2016-04-02T03:35:29.498Z,0
2016-04-02T03:36:29.813Z,0
2016-04-02T03:37:30.206Z,0
2016-04-02T03:38:30.006Z,0
2016-04-02T03:39:43.883Z,0
2016-04-02T03:40:30.026Z,0
2016-04-02T03:41:29.811Z,0
2016-04-02T03:42:29.751Z,0
2016-04-02T03:43:29.957Z,0
2016-04-02T03:44:29.756Z,0
2016-04-02T03:45:29.962Z,0
2016-04-02T03:46:29.747Z,0
2016-04-02T03:47:29.967Z,0
2016-04-02T03:49:30.191Z,0
2016-04-02T03:50:30.147Z,0
2016-04-02T03:51:29.696Z,0
2016-04-02T03:52:29.215Z,0
2016-04-02T03:53:29.749Z,0
2016-04-02T03:54:29.704Z,0
2016-04-02T03:55:29.926Z,0
2016-04-02T03:56:29.679Z,0
2016-04-02T03:57:29.682Z,0
2016-04-02T03:58:29.669Z,0
2016-04-02T03:59:29.859Z,0
2016-04-02T04:00:29.534Z,0
2016-04-02T04:01:29.645Z,4
2016-04-02T04:02:29.648Z,4
2016-04-02T04:03:29.651Z,0
2016-04-02T04:04:29.638Z,0
2016-04-02T04:05:29.641Z,4
2016-04-02T04:06:29.629Z,0
2016-04-02T04:07:29.678Z,4
2016-04-02T04:08:29.837Z,4
2016-04-02T04:09:29.621Z,4
2016-04-02T04:10:43.701Z,4
2016-04-02T04:11:29.642Z,4
2016-04-02T04:12:30.191Z,8
2016-04-02T04:13:29.803Z,12
2016-04-02T04:14:29.618Z,12
2016-04-02T04:15:29.808Z,12
2016-04-02T04:16:29.623Z,16
2016-04-02T04:17:43.922Z,20
2016-04-02T04:18:29.566Z,20
2016-04-02T04:19:30.022Z,24
2016-04-02T04:20:29.541Z,28
2016-04-02T04:21:29.997Z,36
2016-04-02T04:22:29.561Z,40
2016-04-02T04:23:29.752Z,48
2016-04-02T04:24:29.536Z,56
2016-04-02T04:25:29.741Z,64
2016-04-02T04:26:29.525Z,76
2016-04-02T04:27:29.746Z,88
2016-04-02T04:28:29.734Z,104
2016-04-02T04:30:29.567Z,128
2016-04-02T04:31:29.726Z,148
2016-04-02T04:32:29.682Z,160
2016-04-02T04:33:29.528Z,176
2016-04-02T04:34:29.485Z,192
2016-04-02T04:35:29.737Z,208
2016-04-02T04:36:28.990Z,228
2016-04-02T04:37:29.915Z,256
2016-04-02T04:38:29.448Z,276
2016-04-02T04:39:29.670Z,304
2016-04-02T04:40:29.453Z,336
2016-04-02T04:41:43.972Z,372
2016-04-02T04:42:29.678Z,400
2016-04-02T04:43:29.478Z,432
2016-04-02T04:44:29.715Z,476
2016-04-02T04:45:29.467Z,516
2016-04-02T04:46:29.470Z,560
2016-04-02T04:47:57.832Z,628
2016-04-02T04:48:29.397Z,656
2016-04-02T04:49:29.462Z,704
2016-04-02T04:50:29.433Z,756
2016-04-02T04:51:43.499Z,824
2016-04-02T04:52:29.595Z,864
2016-04-02T04:53:29.379Z,912
2016-04-02T04:54:29.819Z,960
2016-04-02T04:55:29.400Z,1016
2016-04-02T04:56:29.371Z,1080
2016-04-02T04:57:28.891Z,1140
2016-04-02T04:58:29.377Z,1196
2016-04-02T04:59:29.364Z,1252
2016-04-02T05:00:29.742Z,1304
2016-04-02T05:01:29.604Z,1352
2016-04-02T05:02:29.529Z,1408
2016-04-02T05:03:29.781Z,1460
2016-04-02T05:04:29.331Z,1516
2016-04-02T05:06:29.554Z,1628
2016-04-02T05:07:29.354Z,1684
2016-04-02T05:08:29.637Z,1736
2016-04-02T05:09:29.312Z,1792
2016-04-02T05:10:30.065Z,1852
2016-04-02T05:11:29.770Z,1920
2016-04-02T05:12:29.681Z,1988
2016-04-02T05:13:29.714Z,2068
2016-04-02T05:14:29.998Z,2156
2016-04-02T05:15:29.954Z,2240
2016-04-02T05:16:29.738Z,2316
2016-04-02T05:17:29.709Z,2384
2016-04-02T05:18:30.008Z,2452
2016-04-02T05:19:29.964Z,2508
2016-04-02T05:20:29.749Z,2556
2016-04-02T05:21:29.845Z,2576
2016-04-02T05:22:29.505Z,2660
2016-04-02T05:23:29.601Z,2696
2016-04-02T05:24:29.681Z,2704
2016-04-02T05:25:29.513Z,2728
2016-04-02T05:26:29.968Z,2744
2016-04-02T05:27:29.846Z,2748
2016-04-02T05:28:29.646Z,2744
2016-04-02T05:29:29.679Z,2784
2016-04-02T05:30:29.713Z,2816
2016-04-02T05:31:29.606Z,2832
2016-04-02T05:32:29.687Z,2840
2016-04-02T05:33:29.612Z,2844
2016-04-02T05:34:29.473Z,2816
2016-04-02T05:35:29.507Z,2784
2016-04-02T05:36:29.588Z,2752
2016-04-02T05:37:29.607Z,2740
2016-04-02T05:38:29.563Z,2728
2016-04-02T05:39:30.346Z,2692
2016-04-02T05:40:29.599Z,2700
2016-04-02T05:41:29.351Z,2732
2016-04-02T05:42:29.636Z,2752
2016-04-02T05:43:29.561Z,2800
2016-04-02T05:44:29.563Z,2800
2016-04-02T05:45:29.909Z,2800
2016-04-02T05:46:30.630Z,2756
2016-04-02T05:47:43.461Z,2832
2016-04-02T05:48:43.464Z,2868
2016-04-02T05:49:29.577Z,2888
2016-04-02T05:50:29.126Z,2916
2016-04-02T05:51:29.520Z,2960
2016-04-02T05:52:29.335Z,2996
2016-04-02T05:53:29.494Z,3052
2016-04-02T05:54:29.669Z,3092
2016-04-02T05:55:29.530Z,3112
2016-04-02T05:56:29.424Z,3132
2016-04-02T05:57:29.394Z,3180
2016-04-02T05:58:29.335Z,3256
2016-04-02T05:59:29.494Z,3344
2016-04-02T06:00:29.482Z,3400
2016-04-02T06:01:29.703Z,3428
2016-04-02T06:02:43.533Z,3456
2016-04-02T06:03:29.193Z,3480
2016-04-02T06:04:29.586Z,3500
2016-04-02T06:05:29.120Z,3568
2016-04-02T06:06:28.654Z,3620
2016-04-02T06:07:29.171Z,3680
2016-04-02T06:08:29.659Z,3712
2016-04-02T06:09:29.146Z,3736
2016-04-02T06:10:29.148Z,3748
2016-04-02T06:11:29.557Z,3780
2016-04-02T06:12:29.356Z,3796
2016-04-02T06:13:29.469Z,3856
2016-04-02T06:14:29.159Z,3856
2016-04-02T06:15:29.334Z,3744
2016-04-02T06:16:29.212Z,3892
2016-04-02T06:17:29.715Z,3984
2016-04-02T06:18:43.358Z,3984
2016-04-02T06:19:29.298Z,3996
2016-04-02T06:20:29.253Z,4008
2016-04-02T06:21:29.241Z,4020
2016-04-02T06:22:29.697Z,4044
2016-04-02T06:23:29.933Z,4048
2016-04-02T06:24:29.874Z,4072
2016-04-02T06:25:29.501Z,4080
2016-04-02T06:26:29.332Z,4084
2016-04-02T06:27:29.116Z,4084
2016-04-02T06:28:29.196Z,4092
2016-04-02T06:29:29.043Z,4084
2016-04-02T06:30:28.983Z,4072
2016-04-02T06:31:29.064Z,4072
2016-04-02T06:33:29.226Z,4148
2016-04-02T06:34:29.182Z,4260
2016-04-02T06:35:28.981Z,4128
2016-04-02T06:36:28.984Z,4036
2016-04-02T06:37:29.002Z,4068
2016-04-02T06:38:43.287Z,4384
2016-04-02T06:39:29.024Z,4600
2016-04-02T06:40:28.996Z,4984
2016-04-02T06:41:28.967Z,5312
2016-04-02T06:43:28.988Z,6032
2016-04-02T06:44:28.959Z,5468
2016-04-02T06:45:43.446Z,4468
2016-04-02T06:46:29.370Z,4164
2016-04-02T06:47:43.451Z,4700
2016-04-02T06:48:29.173Z,6036
2016-04-02T06:49:43.456Z,6952
2016-04-02T06:50:29.350Z,6968
2016-04-02T06:51:29.383Z,7300
2016-04-02T06:52:29.246Z,7700
2016-04-02T06:53:29.452Z,8700
2016-04-02T06:54:29.392Z,9332
2016-04-02T06:55:29.301Z,10208
2016-04-02T06:56:29.694Z,10540
2016-04-02T06:57:29.197Z,9696
2016-04-02T06:58:43.168Z,6868
2016-04-02T06:59:28.999Z,5072
2016-04-02T07:00:29.471Z,4204
2016-04-02T07:01:29.082Z,4168
2016-04-02T07:02:29.148Z,4168
2016-04-02T07:03:32.587Z,4200
2016-04-02T07:04:29.074Z,4244
2016-04-02T07:05:29.499Z,4508
2016-04-02T07:06:29.018Z,6960
2016-04-02T07:08:28.618Z,9588
2016-04-02T07:09:29.198Z,8072
2016-04-02T07:10:29.154Z,6772
2016-04-02T07:11:29.266Z,6948
2016-04-02T07:12:29.518Z,7608
2016-04-02T07:13:28.990Z,6056
2016-04-02T07:14:29.306Z,5264
2016-04-02T07:15:29.589Z,4952
2016-04-02T07:16:43.404Z,4724
2016-04-02T07:17:43.126Z,4596
2016-04-02T07:19:29.162Z,4564
2016-04-02T07:20:29.134Z,4608
2016-04-02T07:21:29.074Z,4580
2016-04-02T07:22:29.092Z,4616
2016-04-02T07:23:31.408Z,4628
2016-04-02T07:24:29.488Z,4632
2016-04-02T07:25:32.756Z,4644
2016-04-02T07:26:29.087Z,4648
2016-04-02T07:27:29.090Z,4656
2016-04-02T07:28:29.702Z,4652
2016-04-02T07:29:28.955Z,4676
2016-04-02T07:30:28.489Z,4696
2016-04-02T07:31:28.976Z,4584
2016-04-02T07:32:29.385Z,4648
2016-04-02T07:33:28.981Z,4632
2016-04-02T07:34:29.124Z,4664
2016-04-02T07:35:28.987Z,4676
2016-04-02T07:36:28.474Z,4764
2016-04-02T07:37:28.960Z,4836
2016-04-02T07:38:43.041Z,6100
2016-04-02T07:39:28.950Z,5932
2016-04-02T07:40:29.156Z,5464
2016-04-02T07:41:28.956Z,7704
2016-04-02T07:42:29.177Z,6944
2016-04-02T07:43:29.165Z,8740
2016-04-02T07:44:29.151Z,7980
2016-04-02T07:45:29.170Z,5284
2016-04-02T07:46:43.453Z,5024
2016-04-02T07:47:32.206Z,4592
2016-04-02T07:48:29.303Z,4748
2016-04-02T07:49:28.961Z,4584
2016-04-02T07:50:43.278Z,4780
2016-04-02T07:51:29.014Z,4664
2016-04-02T07:52:29.204Z,4608
2016-04-02T07:53:28.973Z,4604
2016-04-02T07:54:28.975Z,4644
2016-04-02T07:55:29.212Z,4700
2016-04-02T07:56:28.996Z,4840
2016-04-02T07:57:28.983Z,5336
2016-04-02T07:58:29.001Z,6044
2016-04-02T07:59:28.988Z,4544
2016-04-02T08:00:29.194Z,4452
2016-04-02T08:01:28.994Z,4432
2016-04-02T08:02:28.981Z,4472
2016-04-02T08:03:43.266Z,4388
2016-04-02T08:04:28.971Z,4396
2016-04-02T08:05:29.021Z,4488
2016-04-02T08:06:43.085Z,4380
2016-04-02T08:07:29.010Z,4396
2016-04-02T08:08:57.371Z,4420
2016-04-02T08:09:28.531Z,4416
2016-04-02T08:10:29.206Z,4400
2016-04-02T08:11:29.192Z,4372
2016-04-02T08:12:29.039Z,4384
2016-04-02T08:13:29.417Z,4400
2016-04-02T08:15:29.251Z,4420
2016-04-02T08:16:28.706Z,4440
2016-04-02T08:17:29.256Z,4492
2016-04-02T08:18:43.305Z,4448
2016-04-02T08:19:28.995Z,4464
2016-04-02T08:20:28.998Z,4472
2016-04-02T08:21:29.204Z,4428
2016-04-02T08:22:29.004Z,4484
2016-04-02T08:23:29.037Z,4480
2016-04-02T08:24:29.025Z,4448
2016-04-02T08:25:43.105Z,4492
2016-04-02T08:26:29.014Z,4472
2016-04-02T08:27:43.485Z,4496
2016-04-02T08:28:29.019Z,4512
2016-04-02T08:29:28.850Z,4556
2016-04-02T08:30:29.025Z,4532
2016-04-02T08:31:29.013Z,4576
2016-04-02T08:33:29.018Z,4556
2016-04-02T08:34:29.223Z,4576
2016-04-02T08:35:29.038Z,4628
2016-04-02T08:36:43.337Z,4556
2016-04-02T08:37:29.418Z,4620
2016-04-02T08:38:29.031Z,4588
2016-04-02T08:39:29.049Z,4532
2016-04-02T08:40:29.239Z,4520
2016-04-02T08:41:29.055Z,4580
2016-04-02T08:42:29.042Z,4504
2016-04-02T08:43:29.029Z,4560
2016-04-02T08:44:43.406Z,4508
2016-04-02T08:45:43.534Z,4548
2016-04-02T08:46:29.053Z,4592
2016-04-02T08:47:29.274Z,4624
2016-04-02T08:48:29.198Z,4620
2016-04-02T08:49:29.154Z,4620
2016-04-02T08:50:29.063Z,4672
2016-04-02T08:51:29.050Z,4668
2016-04-02T08:52:29.053Z,4604
2016-04-02T08:53:29.055Z,4688
2016-04-02T08:54:29.089Z,4636
2016-04-02T08:55:29.264Z,4700
2016-04-02T08:56:29.267Z,4756
2016-04-02T08:57:29.270Z,4740
2016-04-02T08:58:29.069Z,4748
2016-04-02T08:59:29.072Z,4796
2016-04-02T09:00:29.308Z,4776
2016-04-02T09:01:29.124Z,4736
2016-04-02T09:02:29.298Z,4764
2016-04-02T09:03:29.114Z,4804
2016-04-02T09:04:29.304Z,4792
2016-04-02T09:05:29.104Z,4776
2016-04-02T09:06:29.137Z,4812
2016-04-02T09:07:43.187Z,4752
2016-04-02T09:08:43.189Z,4944
2016-04-02T09:09:29.582Z,5056
2016-04-02T09:10:29.273Z,5216
2016-04-02T09:11:28.823Z,5368
2016-04-02T09:12:29.091Z,5180
2016-04-02T09:13:29.109Z,5376
2016-04-02T09:14:29.143Z,5184
2016-04-02T09:15:29.318Z,5108
2016-04-02T09:16:29.102Z,5016
2016-04-02T09:17:29.324Z,5024
2016-04-02T09:18:29.139Z,5008
2016-04-02T09:19:29.126Z,5076
2016-04-02T09:20:29.128Z,5036
2016-04-02T09:21:29.147Z,5048
2016-04-02T09:22:29.320Z,5096
2016-04-02T09:23:29.136Z,5100
2016-04-02T09:24:29.139Z,5140
2016-04-02T09:25:29.329Z,5168
2016-04-02T09:26:29.129Z,5160
2016-04-02T09:27:29.147Z,5180
2016-04-02T09:28:29.150Z,5188
2016-04-02T09:29:29.121Z,5148
2016-04-02T09:30:29.405Z,5180
2016-04-02T09:31:29.391Z,5204
2016-04-02T09:32:29.535Z,5204
2016-04-02T09:33:29.382Z,5200
2016-04-02T09:34:29.150Z,5208
2016-04-02T09:35:29.153Z,5228
2016-04-02T09:36:29.187Z,5224
2016-04-02T09:37:29.174Z,5216
2016-04-02T09:38:29.160Z,5256
2016-04-02T09:39:29.164Z,5288
2016-04-02T09:40:29.385Z,5288
2016-04-02T09:41:29.357Z,5316
2016-04-02T09:42:29.359Z,5316
2016-04-02T09:43:29.206Z,5324
2016-04-02T09:44:29.224Z,5304
2016-04-02T09:45:29.195Z,5292
2016-04-02T09:46:29.182Z,5244
2016-04-02T09:47:29.200Z,5256
2016-04-02T09:48:29.407Z,5256
2016-04-02T09:50:29.428Z,5216
2016-04-02T09:51:29.414Z,5212
2016-04-02T09:52:29.214Z,5232
2016-04-02T09:53:43.717Z,5240
2016-04-02T09:54:29.078Z,5220
2016-04-02T09:55:29.269Z,5160
2016-04-02T09:56:29.209Z,5104
2016-04-02T09:57:29.228Z,5164
2016-04-02T09:58:29.231Z,5212
2016-04-02T09:59:29.280Z,5256
2016-04-02T10:00:29.236Z,5256
2016-04-02T10:01:29.238Z,5252
2016-04-02T10:02:29.835Z,5280
2016-04-02T10:03:29.510Z,5296
2016-04-02T10:04:29.856Z,5312
2016-04-02T10:05:29.266Z,5304
2016-04-02T10:06:29.252Z,5332
2016-04-02T10:07:29.286Z,5404
2016-04-02T10:08:29.288Z,5472
2016-04-02T10:09:43.369Z,5432
2016-04-02T10:10:29.278Z,5456
2016-04-02T10:11:29.312Z,5504
2016-04-02T10:12:29.315Z,5536
2016-04-02T10:13:29.318Z,5508
2016-04-02T10:14:28.821Z,5540
2016-04-02T10:15:29.526Z,5556
2016-04-02T10:16:29.310Z,5644
2016-04-02T10:17:29.718Z,5580
2016-04-02T10:18:29.550Z,5548
2016-04-02T10:19:29.552Z,5520
2016-04-02T10:20:29.305Z,5516
2016-04-02T10:21:29.323Z,5508
2016-04-02T10:22:43.654Z,5536
2016-04-02T10:23:28.829Z,5492
2016-04-02T10:24:29.362Z,5472
2016-04-02T10:25:29.365Z,5476
2016-04-02T10:26:29.336Z,5496
2016-04-02T10:27:29.386Z,5472
2016-04-02T10:28:29.358Z,5500
2016-04-02T10:29:29.361Z,5472
2016-04-02T10:30:29.379Z,5440
2016-04-02T10:31:29.585Z,5424
2016-04-02T10:32:43.759Z,5424
2016-04-02T10:33:29.824Z,5424
2016-04-02T10:34:29.389Z,5408
2016-04-02T10:35:29.407Z,5444
2016-04-02T10:36:29.488Z,5456
2016-04-02T10:37:29.694Z,5444
2016-04-02T10:38:29.525Z,5472
2016-04-02T10:39:29.403Z,5460
2016-04-02T10:40:43.718Z,5508
2016-04-02T10:41:29.408Z,5492
2016-04-02T10:42:29.630Z,5512
2016-04-02T10:43:29.476Z,5520
2016-04-02T10:44:29.448Z,5560
2016-04-02T10:45:29.434Z,5532
2016-04-02T10:46:29.640Z,5516
2016-04-02T10:47:29.487Z,5524
2016-04-02T10:48:29.474Z,5556
2016-04-02T10:49:29.462Z,5544
2016-04-02T10:50:29.495Z,5544
2016-04-02T10:51:29.514Z,5524
2016-04-02T10:52:29.687Z,5548
2016-04-02T10:53:29.676Z,5568
2016-04-02T10:54:29.475Z,5516
2016-04-02T10:55:29.712Z,5548
2016-04-02T10:56:29.684Z,5544
2016-04-02T10:57:43.811Z,5580
2016-04-02T10:58:29.533Z,5560
2016-04-02T10:59:30.300Z,5548
2016-04-02T11:01:29.758Z,5536
2016-04-02T11:02:29.548Z,5552
2016-04-02T11:03:30.117Z,5544
2016-04-02T11:04:29.219Z,5564
2016-04-02T11:05:29.226Z,5568
2016-04-02T11:06:29.905Z,5532
2016-04-02T11:07:29.731Z,5564
2016-04-02T11:08:29.527Z,5568
2016-04-02T11:09:43.775Z,5548
2016-04-02T11:10:29.523Z,5536
2016-04-02T11:12:29.054Z,5524
2016-04-02T11:13:30.118Z,5512
2016-04-02T11:14:29.962Z,5512
2016-04-02T11:15:29.823Z,5516
2016-04-02T11:16:29.511Z,5512
2016-04-02T11:17:29.561Z,5500
2016-04-02T11:18:29.533Z,5496
2016-04-02T11:19:29.629Z,5528
2016-04-02T11:20:29.631Z,5504
2016-04-02T11:21:29.633Z,5508
2016-04-02T11:22:29.745Z,5508
2016-04-02T11:23:29.607Z,5508
2016-04-02T11:24:29.860Z,5488
2016-04-02T11:25:29.798Z,5480
2016-04-02T11:26:29.832Z,5480
2016-04-02T11:27:29.600Z,5468
2016-04-02T11:28:29.571Z,5460
2016-04-02T11:29:29.261Z,5468
2016-04-02T11:30:29.608Z,5480
2016-04-02T11:31:29.626Z,5480
2016-04-02T11:32:29.613Z,5496
2016-04-02T11:33:29.866Z,5508
2016-04-02T11:35:29.637Z,5524
2016-04-02T11:36:29.828Z,5532
2016-04-02T11:38:30.380Z,5576
2016-04-02T11:39:29.647Z,5588
2016-04-02T11:40:30.103Z,5592
2016-04-02T11:41:29.809Z,5620
2016-04-02T11:42:30.140Z,5612
2016-04-02T11:43:29.705Z,5616
2016-04-02T11:44:29.692Z,5644
2016-04-02T11:45:29.680Z,5632
2016-04-02T11:46:29.729Z,5664
2016-04-02T11:47:29.919Z,5676
2016-04-02T11:48:29.906Z,5708
2016-04-02T11:49:29.987Z,5756
2016-04-02T11:50:29.709Z,5788
2016-04-02T11:51:29.727Z,5828
2016-04-02T11:52:29.746Z,5880
2016-04-02T11:53:29.967Z,5908
2016-04-02T11:54:29.751Z,5940
2016-04-02T11:55:29.815Z,5964
2016-04-02T11:56:29.287Z,5984
2016-04-02T11:57:44.073Z,6016
2016-04-02T11:58:44.483Z,6020
2016-04-02T11:59:30.451Z,6020
2016-04-02T12:00:30.016Z,6032
2016-04-02T12:01:44.100Z,6040
2016-04-02T12:02:30.069Z,6040
2016-04-02T12:03:30.009Z,6016
2016-04-02T12:04:30.214Z,6028
2016-04-02T12:05:44.189Z,6068
2016-04-02T12:06:29.861Z,6068
2016-04-02T12:07:29.191Z,6060
2016-04-02T12:08:30.116Z,6104
2016-04-02T12:09:30.055Z,6140
2016-04-02T12:10:29.902Z,6112
2016-04-02T12:11:29.874Z,6132
2016-04-02T12:12:29.877Z,6168
2016-04-02T12:13:29.880Z,6172
2016-04-02T12:14:29.898Z,6152
2016-04-02T12:15:29.916Z,6168
2016-04-02T12:16:29.935Z,6168
2016-04-02T12:17:29.937Z,6188
2016-04-02T12:18:29.910Z,6188
2016-04-02T12:19:29.958Z,6224
2016-04-02T12:20:29.930Z,6240
2016-04-02T12:21:29.948Z,6252
2016-04-02T12:22:29.951Z,6280
2016-04-02T12:23:30.001Z,6308
2016-04-02T12:24:30.003Z,6356
2016-04-02T12:25:29.490Z,6360
2016-04-02T12:26:30.039Z,6360
2016-04-02T12:27:30.230Z,6380
2016-04-02T12:28:30.232Z,6404
2016-04-02T12:29:30.032Z,6424
2016-04-02T12:30:29.567Z,6460
2016-04-02T12:31:30.053Z,6436
2016-04-02T12:32:30.056Z,6436
2016-04-02T12:33:30.042Z,6448
2016-04-02T12:34:30.264Z,6508
2016-04-02T12:35:30.079Z,6476
2016-04-02T12:36:30.113Z,6460
2016-04-02T12:37:30.085Z,6484
2016-04-02T12:38:30.103Z,6512
2016-04-02T12:39:30.137Z,6476
2016-04-02T12:40:30.108Z,6488
2016-04-02T12:41:30.158Z,6496
2016-04-02T12:42:30.160Z,6504
2016-04-02T12:43:30.180Z,6464
2016-04-02T12:44:30.166Z,6456
2016-04-02T12:45:30.185Z,6468
2016-04-02T12:46:30.203Z,6456
2016-04-02T12:47:30.190Z,6456
2016-04-02T12:48:30.208Z,6452
2016-04-02T12:49:30.211Z,6440
2016-04-02T12:50:30.213Z,6424
2016-04-02T12:51:30.232Z,6408
2016-04-02T12:52:30.234Z,6420
2016-04-02T12:53:30.269Z,6488
2016-04-02T12:54:30.271Z,6408
2016-04-02T12:55:30.493Z,6408
2016-04-02T12:56:30.277Z,6400
2016-04-02T12:57:30.295Z,6396
2016-04-02T12:58:30.517Z,6388
2016-04-02T12:59:30.300Z,6392
2016-04-02T13:00:30.334Z,6376
2016-04-02T13:01:30.367Z,6380
2016-04-02T13:02:30.355Z,6384
2016-04-02T13:03:30.373Z,6396
2016-04-02T13:04:30.564Z,6396
2016-04-02T13:05:30.379Z,6384
2016-04-02T13:06:30.397Z,6384
2016-04-02T13:07:30.400Z,6372
2016-04-02T13:08:30.449Z,6356
2016-04-02T13:09:30.421Z,6368
2016-04-02T13:10:30.455Z,6460
2016-04-02T13:11:30.536Z,6340
2016-04-02T13:12:30.461Z,6300
2016-04-02T13:13:30.478Z,6264
2016-04-02T13:14:30.481Z,6268
2016-04-02T13:15:30.515Z,6352
2016-04-02T13:16:30.502Z,6260
2016-04-02T13:17:30.754Z,6232
2016-04-02T13:18:30.507Z,6216
2016-04-02T13:19:30.604Z,6216
2016-04-02T13:20:30.701Z,6204
2016-04-02T13:21:30.625Z,6192
2016-04-02T13:22:30.581Z,6156
2016-04-02T13:23:30.615Z,6136
2016-04-02T13:24:30.820Z,6120
2016-04-02T13:25:30.620Z,6108
2016-04-02T13:26:30.684Z,6092
2016-04-02T13:27:30.625Z,6104
2016-04-02T13:28:30.643Z,6100
2016-04-02T13:29:30.678Z,6112
2016-04-02T13:30:31.071Z,6120
2016-04-02T13:31:30.215Z,6136
2016-04-02T13:32:30.686Z,6148
2016-04-02T13:33:30.736Z,6160
2016-04-02T13:34:30.753Z,6168
2016-04-02T13:35:31.272Z,6180
2016-04-02T13:36:30.869Z,6184
2016-04-02T13:37:30.934Z,6204
2016-04-02T13:39:30.767Z,6244
2016-04-02T13:40:30.958Z,6248
2016-04-02T13:41:30.819Z,6248
2016-04-02T13:42:30.994Z,6264
2016-04-02T13:43:45.108Z,6272
2016-04-02T13:44:31.046Z,6280
2016-04-02T13:45:30.830Z,6284
2016-04-02T13:46:30.849Z,6296
2016-04-02T13:47:45.197Z,6256
2016-04-02T13:48:45.185Z,6240
2016-04-02T13:49:30.872Z,6228
2016-04-02T13:50:30.859Z,6232
2016-04-02T13:51:31.112Z,6244
2016-04-02T13:52:30.911Z,6232
2016-04-02T13:53:31.148Z,6208
2016-04-02T13:54:30.932Z,6228
2016-04-02T13:55:30.966Z,6208
2016-04-02T13:56:31.360Z,6228
2016-04-02T13:57:30.987Z,6208
2016-04-02T13:58:30.974Z,6208
2016-04-02T13:59:31.008Z,6200
2016-04-02T14:00:30.995Z,6196
2016-04-02T14:01:31.058Z,6192
2016-04-02T14:02:31.013Z,6172
2016-04-02T14:03:31.077Z,6176